Portada
METAR-TAF:

METAR-TAF

Aeroports :

Tefé, Amazones, Brasil

latitud: 03-22S, longitud: 064-41W, altitud: 47 m

Observació

L'informe es va fer fa 3 hores i 37 minuts, a les 21:00 UTC
Vent 5 kt del Est/Nord-Est
Temperatura 33°C
Humitat 56%
Pressió 1007 hPa
Visibilitat 10 km o més
Escasses núvols a una alçada de 2000 ft

METAR: SBTF 122100Z 06005KT 9999 FEW020 33/23 Q1007

Hora: 20:37 (00:37 UTC)

Pronòstic

L'informe es va fer fa 3 hores i 37 minuts, a les 21:00 UTC
Pronòstic vàlid del 13 a les 00 UTC al 13 a les 12 UTC
Vent 5 kt del Oest/Nord-Oest
Visibilitat 10 km o més
Escasses núvols a una alçada de 2000 ft
Evolucionant progressivament
l' 13 a les 08 UTC al 13 a les 10 UTC
Escasses núvols a una alçada de 1200 ft

TAF: SBTF 122100Z 1300/1312 30005KT 9999 FEW020 TX27/1300Z TN23/1309Z BECMG 1308/1310 FEW012 RMK PDL

Observacions i pronòstics meteorològics de més de 4000 aeroports (METAR i TAF).

Les estacions disponibles són els punts grocs i vermells al mapa.

Posi el ratolí al punt desitjat per veure el nom de l'estació.

Feu clic per veure les observacions i els pronòstics meteorològics.

Per canviar el mapa: feu clic els botons verds amb una creu de color negre per apropar; al botó verd amb un guió per allunyar la imatge; o en les fletxes verdes per a mapes adjacents.


METAR-TAF: